Rocky Mount, Missouri
Current Conditions -  °F | °C
As of 2:35 AM on Sunday 23 Nov 2014 (Local Time) from KAIZ Reporting Station
Overcast Overcast  
Wind Chill: 55°   Ceiling: 9000
Heat Index: 55°   Visibility: 10mi
Dew Point: 48°   Wind: 12mph
Humidity: 77%   Direction: 170°S
Pressure: 29.72"   Gusts: 17mph
Location:  38.27°N, 92.72°W
Report Text: KAIZ 230835Z AUTO 17010G15KT 10SM FEW017 OVC090 13/09 A2972 RMK AO1
Loading
Personal Weather Stations






























Interactive Weather Map New forecast layout! Learn more

10-Day Weather Forecast

Advertisements
Track Severe Weather on mobile